sensor_id;sensor_type;location;lat;lon;timestamp;pressure;altitude;pressure_sealevel;temperature;humidity
69926;BME280;57217;47.286;8.530;2024-03-02T00:19:31;94180.81;;;4.67;100.00
69926;BME280;57217;47.286;8.530;2024-03-02T00:49:33;94200.25;;;4.38;100.00
69926;BME280;57217;47.286;8.530;2024-03-02T01:19:35;94205.06;;;4.18;100.00
69926;BME280;57217;47.286;8.530;2024-03-02T01:49:38;94209.91;;;4.05;100.00
69926;BME280;57217;47.286;8.530;2024-03-02T02:19:42;94213.22;;;3.92;100.00
69926;BME280;57217;47.286;8.530;2024-03-02T02:49:44;94176.28;;;4.11;100.00
69926;BME280;57217;47.286;8.530;2024-03-02T03:19:48;94168.06;;;4.09;100.00
69926;BME280;57217;47.286;8.530;2024-03-02T03:49:50;94162.44;;;3.82;100.00
69926;BME280;57217;47.286;8.530;2024-03-02T04:19:52;94162.72;;;3.56;100.00
69926;BME280;57217;47.286;8.530;2024-03-02T04:49:54;94185.25;;;3.05;100.00
69926;BME280;57217;47.286;8.530;2024-03-02T05:19:57;94196.25;;;2.74;100.00
69926;BME280;57217;47.286;8.530;2024-03-02T05:49:59;94198.06;;;2.63;100.00
69926;BME280;57217;47.286;8.530;2024-03-02T06:20:07;94198.34;;;2.54;100.00
69926;BME280;57217;47.286;8.530;2024-03-02T06:50:10;94203.75;;;2.79;100.00
69926;BME280;57217;47.286;8.530;2024-03-02T07:20:13;94192.66;;;3.79;100.00
69926;BME280;57217;47.286;8.530;2024-03-02T07:50:24;94170.88;;;5.57;100.00
69926;BME280;57217;47.286;8.530;2024-03-02T08:20:28;94155.53;;;7.45;100.00
69926;BME280;57217;47.286;8.530;2024-03-02T08:50:30;94121.56;;;8.15;100.00
69926;BME280;57217;47.286;8.530;2024-03-02T09:20:35;94100.38;;;8.72;100.00
69926;BME280;57217;47.286;8.530;2024-03-02T09:50:37;94089.59;;;8.63;100.00
69926;BME280;57217;47.286;8.530;2024-03-02T10:20:40;94067.63;;;8.93;100.00
69926;BME280;57217;47.286;8.530;2024-03-02T10:50:44;94045.72;;;9.52;95.61
69926;BME280;57217;47.286;8.530;2024-03-02T11:20:47;94016.41;;;9.99;91.29
69926;BME280;57217;47.286;8.530;2024-03-02T11:50:58;93977.50;;;11.31;83.61
69926;BME280;57217;47.286;8.530;2024-03-02T12:21:04;93945.03;;;12.03;78.45
69926;BME280;57217;47.286;8.530;2024-03-02T12:51:10;93904.69;;;12.56;75.28
69926;BME280;57217;47.286;8.530;2024-03-02T13:21:13;93860.81;;;13.17;72.92
69926;BME280;57217;47.286;8.530;2024-03-02T13:51:15;93843.38;;;12.75;73.66
69926;BME280;57217;47.286;8.530;2024-03-02T14:21:20;93812.44;;;11.98;77.92
69926;BME280;57217;47.286;8.530;2024-03-02T14:51:24;93788.09;;;11.34;79.85
69926;BME280;57217;47.286;8.530;2024-03-02T15:21:26;93768.00;;;11.11;82.74
69926;BME280;57217;47.286;8.530;2024-03-02T15:51:28;93743.22;;;10.83;83.25
69926;BME280;57217;47.286;8.530;2024-03-02T16:21:31;93712.69;;;10.57;86.98
69926;BME280;57217;47.286;8.530;2024-03-02T16:51:39;93700.81;;;10.10;92.80
69926;BME280;57217;47.286;8.530;2024-03-02T17:21:41;93684.78;;;8.92;96.88
69926;BME280;57217;47.286;8.530;2024-03-02T17:51:44;93673.38;;;7.78;100.00
69926;BME280;57217;47.286;8.530;2024-03-02T18:21:46;93649.72;;;7.02;100.00
69926;BME280;57217;47.286;8.530;2024-03-02T18:51:49;93650.72;;;6.65;100.00
69926;BME280;57217;47.286;8.530;2024-03-02T19:21:53;93635.78;;;6.39;100.00
69926;BME280;57217;47.286;8.530;2024-03-02T19:51:55;93642.22;;;6.34;100.00
69926;BME280;57217;47.286;8.530;2024-03-02T20:21:57;93616.16;;;6.47;100.00
69926;BME280;57217;47.286;8.530;2024-03-02T20:52:00;93597.94;;;6.60;100.00
69926;BME280;57217;47.286;8.530;2024-03-02T21:22:03;93598.47;;;6.51;100.00
69926;BME280;57217;47.286;8.530;2024-03-02T21:52:08;93593.34;;;6.21;100.00
69926;BME280;57217;47.286;8.530;2024-03-02T22:22:11;93573.41;;;6.00;100.00
69926;BME280;57217;47.286;8.530;2024-03-02T22:52:13;93557.03;;;5.92;100.00
69926;BME280;57217;47.286;8.530;2024-03-02T23:22:15;93548.00;;;5.70;100.00
69926;BME280;57217;47.286;8.530;2024-03-02T23:52:18;93559.81;;;5.55;100.00
